Cedarville, Michigan
Current Conditions -  °F | °C
As of 4:36 AM on Friday 28 Nov 2014 (Local Time) from KMCD Reporting Station
Overcast Overcast  
Wind Chill:   Ceiling: 3000
Heat Index: 16°   Visibility: 10mi
Dew Point: 13°   Wind: 6mph
Humidity: 85%   Direction: 350°N
Pressure: 30.27"   Gusts: NA
Location:  46°N, 84.36°W
Report Text: KMCD 280936Z AUTO 35005KT 10SM SCT012 OVC030 M09/M11 A3027 RMK AO2 T10871108
Loading
Personal Weather Stations






























Interactive Weather Map New forecast layout! Learn more

10-Day Weather Forecast

Advertisements
Track Severe Weather on mobile